createdAt,value
2023-04-18T00:00:20.625Z,74.70
2023-04-18T00:01:20.663Z,73.55
2023-04-18T00:02:20.843Z,73.75
2023-04-18T00:03:21.064Z,73.25
2023-04-18T00:04:21.230Z,73.20
2023-04-18T00:05:20.915Z,73.90
2023-04-18T00:06:20.856Z,73.17
2023-04-18T00:07:20.892Z,73.56
2023-04-18T00:08:20.929Z,73.19
2023-04-18T00:09:20.988Z,72.12
2023-04-18T00:10:21.012Z,72.85
2023-04-18T00:11:21.056Z,72.05
2023-04-18T00:12:21.093Z,72.73
2023-04-18T00:13:21.127Z,72.41
2023-04-18T00:14:21.180Z,72.55
2023-04-18T00:15:21.238Z,72.19
2023-04-18T00:16:21.284Z,72.81
2023-04-18T00:17:21.340Z,72.25
2023-04-18T00:18:21.373Z,71.78
2023-04-18T00:19:21.406Z,71.70
2023-04-18T00:20:21.465Z,72.28
2023-04-18T00:21:21.496Z,72.22
2023-04-18T00:22:21.536Z,71.31
2023-04-18T00:23:21.605Z,71.16
2023-04-18T00:24:21.634Z,71.04
2023-04-18T00:25:21.670Z,71.21
2023-04-18T00:26:21.707Z,71.52
2023-04-18T00:27:21.749Z,70.64
2023-04-18T00:28:21.795Z,71.59
2023-04-18T00:29:21.847Z,70.99
2023-04-18T00:30:21.912Z,71.45
2023-04-18T00:31:21.978Z,69.83
2023-04-18T00:32:22.018Z,70.70
2023-04-18T00:33:22.031Z,70.62
2023-04-18T00:34:22.072Z,69.50
2023-04-18T00:35:22.117Z,69.55
2023-04-18T00:36:22.158Z,70.50
2023-04-18T00:37:22.211Z,69.01
2023-04-18T00:38:22.245Z,69.56
2023-04-18T00:39:22.286Z,69.16
2023-04-18T00:40:22.332Z,69.63
2023-04-18T00:41:22.377Z,69.38
2023-04-18T00:42:22.418Z,69.27
2023-04-18T00:43:22.461Z,68.74
2023-04-18T00:44:22.508Z,68.10
2023-04-18T00:45:22.554Z,68.59
2023-04-18T00:46:22.647Z,68.24
2023-04-18T00:47:22.690Z,68.39
2023-04-18T00:48:22.681Z,68.37
2023-04-18T00:49:22.715Z,68.28
2023-04-18T00:50:22.755Z,67.29
2023-04-18T00:51:22.797Z,68.29
2023-04-18T00:52:22.843Z,67.57
2023-04-18T00:53:22.881Z,66.68
2023-04-18T00:54:22.921Z,67.82
2023-04-18T00:55:22.979Z,68.03
2023-04-18T00:56:23.006Z,67.66
2023-04-18T00:57:23.046Z,67.37
2023-04-18T00:58:23.091Z,66.74
2023-04-18T00:59:23.129Z,68.05
2023-04-18T01:00:23.192Z,67.49
2023-04-18T01:01:23.423Z,67.42
2023-04-18T01:02:23.367Z,68.12
2023-04-18T01:03:23.464Z,66.43
2023-04-18T01:04:23.418Z,66.80
2023-04-18T01:05:23.408Z,67.73
2023-04-18T01:06:23.439Z,66.74
2023-04-18T01:07:23.504Z,67.14
2023-04-18T01:08:23.529Z,66.22
2023-04-18T01:09:23.578Z,67.67
2023-04-18T01:10:23.627Z,66.88
2023-04-18T01:11:23.661Z,66.74
2023-04-18T01:12:23.719Z,66.08
2023-04-18T01:13:23.762Z,65.42
2023-04-18T01:14:23.818Z,64.86
2023-04-18T01:15:23.854Z,66.18
2023-04-18T01:16:24.055Z,65.70
2023-04-18T01:17:24.042Z,65.80
2023-04-18T01:18:24.037Z,65.35
2023-04-18T01:19:24.085Z,65.28
2023-04-18T01:20:24.112Z,64.49
2023-04-18T01:21:24.144Z,65.55
2023-04-18T01:22:24.209Z,65.23
2023-04-18T01:23:24.241Z,64.73
2023-04-18T01:24:24.290Z,64.71
2023-04-18T01:25:24.348Z,64.85
2023-04-18T01:26:24.388Z,64.64
2023-04-18T01:27:24.420Z,64.43
2023-04-18T01:28:24.480Z,64.87
2023-04-18T01:29:24.511Z,63.91
2023-04-18T01:30:24.566Z,64.16
2023-04-18T01:31:24.635Z,65.51
2023-04-18T01:32:24.690Z,64.23
2023-04-18T01:33:24.704Z,63.92
2023-04-18T01:34:24.759Z,63.86
2023-04-18T01:35:24.803Z,63.89
2023-04-18T01:36:24.838Z,64.32
2023-04-18T01:37:24.888Z,63.09
2023-04-18T01:38:24.941Z,64.03
2023-04-18T01:39:24.988Z,63.55
2023-04-18T01:40:25.017Z,63.24
2023-04-18T01:41:25.066Z,63.01
2023-04-18T01:42:25.115Z,63.57
2023-04-18T01:43:25.167Z,62.33
2023-04-18T01:44:25.228Z,62.84
2023-04-18T01:45:25.285Z,62.65
2023-04-18T01:46:25.362Z,62.57
2023-04-18T01:47:25.400Z,62.24
2023-04-18T01:48:25.403Z,63.00
2023-04-18T01:49:25.460Z,61.70
2023-04-18T01:50:25.509Z,61.90
2023-04-18T01:51:25.556Z,62.02
2023-04-18T01:52:25.596Z,62.90
2023-04-18T01:53:25.666Z,61.74
2023-04-18T01:54:25.714Z,61.72
2023-04-18T01:55:25.748Z,62.09
2023-04-18T01:56:25.981Z,62.68
2023-04-18T01:57:25.848Z,61.68
2023-04-18T01:58:25.905Z,60.66
2023-04-18T01:59:25.959Z,62.76
2023-04-18T02:00:26.002Z,62.11
2023-04-18T02:01:26.092Z,60.63
2023-04-18T02:02:26.213Z,61.41
2023-04-18T02:03:26.321Z,60.95
2023-04-18T02:04:26.199Z,60.13
2023-04-18T02:05:26.254Z,61.43
2023-04-18T02:06:26.306Z,60.90
2023-04-18T02:07:26.361Z,61.15
2023-04-18T02:08:26.415Z,60.95
2023-04-18T02:09:26.474Z,60.64
2023-04-18T02:10:26.521Z,61.41
2023-04-18T02:11:26.580Z,59.10
2023-04-18T02:12:26.608Z,60.35
2023-04-18T02:13:26.655Z,59.44
2023-04-18T02:14:26.722Z,59.95
2023-04-18T02:15:26.765Z,59.90
2023-04-18T02:16:26.833Z,60.14
2023-04-18T02:17:26.912Z,59.35
2023-04-18T02:18:26.923Z,58.93
2023-04-18T02:19:26.965Z,58.92
2023-04-18T02:20:27.023Z,60.03
2023-04-18T02:21:27.076Z,59.57
2023-04-18T02:22:27.129Z,58.16
2023-04-18T02:23:27.417Z,58.72
2023-04-18T02:24:27.227Z,58.58
2023-04-18T02:25:27.427Z,57.96
2023-04-18T02:26:27.322Z,58.88
2023-04-18T02:27:27.381Z,58.79
2023-04-18T02:28:27.429Z,58.16
2023-04-18T02:29:27.487Z,58.68
2023-04-18T02:30:27.548Z,58.55
2023-04-18T02:31:27.658Z,59.07
2023-04-18T02:32:27.675Z,58.94
2023-04-18T02:33:27.704Z,57.32
2023-04-18T02:34:27.744Z,57.13
2023-04-18T02:35:27.802Z,57.35
2023-04-18T02:36:27.848Z,57.71
2023-04-18T02:37:27.905Z,58.39
2023-04-18T02:38:27.949Z,58.45
2023-04-18T02:39:28.005Z,57.14
2023-04-18T02:40:28.038Z,57.43
2023-04-18T02:41:28.104Z,56.83
2023-04-18T02:42:28.136Z,56.93
2023-04-18T02:43:28.182Z,57.31
2023-04-18T02:44:28.235Z,57.08
2023-04-18T02:45:28.277Z,57.46
2023-04-18T02:46:28.437Z,56.74
2023-04-18T02:47:28.386Z,56.71
2023-04-18T02:48:28.461Z,56.35
2023-04-18T02:49:28.472Z,55.36
2023-04-18T02:50:28.513Z,56.29
2023-04-18T02:51:28.563Z,56.31
2023-04-18T02:52:28.615Z,56.32
2023-04-18T02:53:28.662Z,56.89
2023-04-18T02:54:28.710Z,55.42
2023-04-18T02:55:28.755Z,56.51
2023-04-18T02:56:28.818Z,55.64
2023-04-18T02:57:28.877Z,55.82
2023-04-18T02:58:28.929Z,55.51
2023-04-18T02:59:28.974Z,56.68
2023-04-18T03:00:29.061Z,54.85
2023-04-18T03:01:29.114Z,55.53
2023-04-18T03:02:29.257Z,55.81
2023-04-18T03:03:29.229Z,56.56
2023-04-18T03:04:29.260Z,55.23
2023-04-18T03:05:29.277Z,55.30
2023-04-18T03:06:29.313Z,56.15
2023-04-18T03:07:29.356Z,54.51
2023-04-18T03:08:29.392Z,54.85
2023-04-18T03:09:29.457Z,55.30
2023-04-18T03:10:29.473Z,54.88
2023-04-18T03:11:29.533Z,54.16
2023-04-18T03:12:29.553Z,53.39
2023-04-18T03:13:29.588Z,53.72
2023-04-18T03:14:29.620Z,53.03
2023-04-18T03:15:29.661Z,52.83
2023-04-18T03:16:29.751Z,51.96
2023-04-18T03:17:29.735Z,52.86
2023-04-18T03:18:29.757Z,52.56
2023-04-18T03:19:29.794Z,52.23
2023-04-18T03:20:29.820Z,51.64
2023-04-18T03:21:29.843Z,52.49
2023-04-18T03:22:29.880Z,51.12
2023-04-18T03:23:29.979Z,51.45
2023-04-18T03:24:29.942Z,49.80
2023-04-18T03:25:29.967Z,51.22
2023-04-18T03:26:29.982Z,50.84
2023-04-18T03:27:30.008Z,50.00
2023-04-18T03:28:30.032Z,50.26
2023-04-18T03:29:30.048Z,49.36
2023-04-18T03:30:30.075Z,50.72
2023-04-18T03:31:30.133Z,50.62
2023-04-18T03:32:30.160Z,49.75
2023-04-18T03:33:30.138Z,49.55
2023-04-18T03:34:30.157Z,48.55
2023-04-18T03:35:30.188Z,49.16
2023-04-18T03:36:30.196Z,49.72
2023-04-18T03:37:30.227Z,48.74
2023-04-18T03:38:30.240Z,49.71
2023-04-18T03:39:30.332Z,47.66
2023-04-18T03:40:30.263Z,48.33
2023-04-18T03:41:30.286Z,47.86
2023-04-18T03:42:30.307Z,48.44
2023-04-18T03:43:30.315Z,47.37
2023-04-18T03:44:30.332Z,47.38
2023-04-18T03:45:30.338Z,47.81
2023-04-18T03:46:30.371Z,47.34
2023-04-18T03:47:30.447Z,47.49
2023-04-18T03:48:30.380Z,46.79
2023-04-18T03:49:30.399Z,46.38
2023-04-18T03:50:30.413Z,46.66
2023-04-18T03:51:30.424Z,46.50
2023-04-18T03:52:30.435Z,46.49
2023-04-18T03:53:30.446Z,46.66
2023-04-18T03:54:30.453Z,46.06
2023-04-18T03:55:30.464Z,46.78
2023-04-18T03:56:30.469Z,45.90
2023-04-18T03:57:30.497Z,45.65
2023-04-18T03:58:30.494Z,46.99
2023-04-18T03:59:30.510Z,46.40
2023-04-18T04:00:30.519Z,45.60
2023-04-18T04:01:30.572Z,45.71
2023-04-18T04:02:30.698Z,45.60
2023-04-18T04:03:30.646Z,45.84
2023-04-18T04:04:30.612Z,45.05
2023-04-18T04:05:30.551Z,45.29
2023-04-18T04:06:30.567Z,45.13
2023-04-18T04:07:30.590Z,44.02
2023-04-18T04:08:30.596Z,44.01
2023-04-18T04:09:30.626Z,45.46
2023-04-18T04:10:30.605Z,43.98
2023-04-18T04:11:30.607Z,44.14
2023-04-18T04:12:30.620Z,44.86
2023-04-18T04:13:30.630Z,43.94
2023-04-18T04:14:30.634Z,44.46
2023-04-18T04:15:30.649Z,44.64
2023-04-18T04:16:30.670Z,44.60
2023-04-18T04:17:30.688Z,44.49
2023-04-18T04:18:30.666Z,44.21
2023-04-18T04:19:30.674Z,43.80
2023-04-18T04:20:30.677Z,42.99
2023-04-18T04:21:30.681Z,43.89
2023-04-18T04:22:30.691Z,43.21
2023-04-18T04:23:30.691Z,43.47
2023-04-18T04:24:30.720Z,42.92
2023-04-18T04:25:30.716Z,42.78
2023-04-18T04:26:31.449Z,43.01
2023-04-18T04:27:30.729Z,43.04
2023-04-18T04:28:30.734Z,42.32
2023-04-18T04:29:30.755Z,42.45
2023-04-18T04:30:30.739Z,42.40
2023-04-18T04:31:30.813Z,41.81
2023-04-18T04:32:30.786Z,41.97
2023-04-18T04:33:30.746Z,42.65
2023-04-18T04:34:30.747Z,42.24
2023-04-18T04:35:30.760Z,41.34
2023-04-18T04:36:30.776Z,41.76
2023-04-18T04:37:30.772Z,41.41
2023-04-18T04:38:31.039Z,42.02
2023-04-18T04:39:30.781Z,40.69
2023-04-18T04:40:30.778Z,41.41
2023-04-18T04:41:30.790Z,40.88
2023-04-18T04:42:30.784Z,40.91
2023-04-18T04:43:30.785Z,41.01
2023-04-18T04:44:30.814Z,41.00
2023-04-18T04:45:30.814Z,40.60
2023-04-18T04:46:30.802Z,40.04
2023-04-18T04:47:30.812Z,39.96
2023-04-18T04:48:30.764Z,39.83
2023-04-18T04:49:30.783Z,41.19
2023-04-18T04:50:30.780Z,39.88
2023-04-18T04:51:30.769Z,40.86
2023-04-18T04:52:30.846Z,39.79
2023-04-18T04:53:30.776Z,39.18
2023-04-18T04:54:30.762Z,39.42
2023-04-18T04:55:30.776Z,39.85
2023-04-18T04:56:30.763Z,39.51
2023-04-18T04:57:30.774Z,39.72
2023-04-18T04:58:30.759Z,39.22
2023-04-18T04:59:30.764Z,39.79
2023-04-18T05:00:30.757Z,38.26
2023-04-18T05:01:30.802Z,39.62
2023-04-18T05:02:30.917Z,39.06
2023-04-18T05:03:30.943Z,39.88
2023-04-18T05:04:30.896Z,38.90
2023-04-18T05:05:30.767Z,37.86
2023-04-18T05:06:30.766Z,38.58
2023-04-18T05:07:30.752Z,38.53
2023-04-18T05:08:30.749Z,38.24
2023-04-18T05:09:30.763Z,37.53
2023-04-18T05:10:30.759Z,38.44
2023-04-18T05:11:30.756Z,37.74
2023-04-18T05:12:30.761Z,36.77
2023-04-18T05:13:30.774Z,37.85
2023-04-18T05:14:30.753Z,38.10
2023-04-18T05:15:30.755Z,37.23
2023-04-18T05:16:30.830Z,37.36
2023-04-18T05:17:30.819Z,35.54
2023-04-18T05:18:32.111Z,35.74
2023-04-18T05:19:30.748Z,35.49
2023-04-18T05:20:30.721Z,35.90
2023-04-18T05:21:30.709Z,34.05
2023-04-18T05:22:30.689Z,27.17
2023-04-18T05:23:30.676Z,27.22
2023-04-18T05:24:30.659Z,26.96
2023-04-18T05:25:30.651Z,25.87
2023-04-18T05:26:30.631Z,25.00
2023-04-18T05:27:30.631Z,25.24
2023-04-18T05:28:30.625Z,25.00
2023-04-18T05:29:30.597Z,26.64
2023-04-18T05:30:30.581Z,26.86
2023-04-18T05:31:30.755Z,25.27
2023-04-18T05:32:30.593Z,26.21
2023-04-18T05:33:30.533Z,25.09
2023-04-18T05:34:30.509Z,25.00
2023-04-18T05:35:30.499Z,25.08
2023-04-18T05:36:30.488Z,25.57
2023-04-18T05:37:30.464Z,25.75
2023-04-18T05:38:30.442Z,25.31
2023-04-18T05:39:30.421Z,25.03
2023-04-18T05:40:30.432Z,25.89
2023-04-18T05:41:30.387Z,25.38
2023-04-18T05:42:30.359Z,25.95
2023-04-18T05:43:30.375Z,25.19
2023-04-18T05:44:30.345Z,26.04
2023-04-18T05:45:30.322Z,25.00
2023-04-18T05:46:30.349Z,25.29
2023-04-18T05:47:30.345Z,25.85
2023-04-18T05:48:30.268Z,25.64
2023-04-18T05:49:30.238Z,26.35
2023-04-18T05:50:30.234Z,25.93
2023-04-18T05:51:30.233Z,26.32
2023-04-18T05:52:30.207Z,25.81
2023-04-18T05:53:30.191Z,25.83
2023-04-18T05:54:30.190Z,25.45
2023-04-18T05:55:30.172Z,26.41
2023-04-18T05:56:30.141Z,25.73
2023-04-18T05:57:30.132Z,26.30
2023-04-18T05:58:30.114Z,25.97
2023-04-18T05:59:30.090Z,26.46
2023-04-18T06:00:30.126Z,25.87
2023-04-18T06:01:30.056Z,26.66
2023-04-18T06:02:30.172Z,26.68
2023-04-18T06:03:30.218Z,26.75
2023-04-18T06:04:30.301Z,26.67
2023-04-18T06:05:30.300Z,25.63
2023-04-18T06:06:29.989Z,26.09
2023-04-18T06:07:29.987Z,25.78
2023-04-18T06:08:29.971Z,25.84
2023-04-18T06:09:29.943Z,25.00
2023-04-18T06:10:29.953Z,26.58
2023-04-18T06:11:29.908Z,27.11
2023-04-18T06:12:29.892Z,26.01
2023-04-18T06:13:29.873Z,26.66
2023-04-18T06:14:29.857Z,27.46
2023-04-18T06:15:29.832Z,26.56
2023-04-18T06:16:29.870Z,26.42
2023-04-18T06:17:29.810Z,26.01
2023-04-18T06:18:29.784Z,26.02
2023-04-18T06:19:29.762Z,25.83
2023-04-18T06:20:29.742Z,26.38
2023-04-18T06:21:29.737Z,25.84
2023-04-18T06:22:29.726Z,25.00
2023-04-18T06:23:29.705Z,27.09
2023-04-18T06:24:31.148Z,27.60
2023-04-18T06:25:29.668Z,26.90
2023-04-18T06:26:29.653Z,26.60
2023-04-18T06:27:31.448Z,26.64
2023-04-18T06:28:29.621Z,27.19
2023-04-18T06:29:29.596Z,26.87
2023-04-18T06:30:29.578Z,26.54
2023-04-18T06:31:29.574Z,27.25
2023-04-18T06:32:29.592Z,26.42
2023-04-18T06:33:29.549Z,26.77
2023-04-18T06:34:29.506Z,26.07
2023-04-18T06:35:29.505Z,25.55
2023-04-18T06:36:29.495Z,25.81
2023-04-18T06:37:29.476Z,25.51
2023-04-18T06:38:29.489Z,25.48
2023-04-18T06:39:29.481Z,25.92
2023-04-18T06:40:29.537Z,25.00
2023-04-18T06:41:29.480Z,26.28
2023-04-18T06:42:29.473Z,26.08
2023-04-18T06:43:29.477Z,25.73
2023-04-18T06:44:29.465Z,25.91
2023-04-18T06:45:29.469Z,26.59
2023-04-18T06:46:29.576Z,25.97
2023-04-18T06:47:29.474Z,25.50
2023-04-18T06:48:29.454Z,26.46
2023-04-18T06:49:29.440Z,25.47
2023-04-18T06:50:29.513Z,26.03
2023-04-18T06:51:29.441Z,27.12
2023-04-18T06:52:29.410Z,25.90
2023-04-18T06:53:29.408Z,26.45
2023-04-18T06:54:30.003Z,25.39
2023-04-18T06:55:29.405Z,25.25
2023-04-18T06:56:29.396Z,26.18
2023-04-18T06:57:29.393Z,26.07
2023-04-18T06:58:29.390Z,25.97
2023-04-18T06:59:29.373Z,25.12
2023-04-18T07:00:29.488Z,26.31
2023-04-18T07:01:29.402Z,26.49
2023-04-18T07:02:29.404Z,26.62
2023-04-18T07:03:29.489Z,26.58
2023-04-18T07:04:29.398Z,25.53
2023-04-18T07:05:29.354Z,25.55
2023-04-18T07:06:29.347Z,26.29
2023-04-18T07:07:29.450Z,25.74
2023-04-18T07:08:29.310Z,27.51
2023-04-18T07:09:29.309Z,26.70
2023-04-18T07:10:29.357Z,25.31
2023-04-18T07:11:29.276Z,25.83
2023-04-18T07:12:29.269Z,25.08
2023-04-18T07:13:29.253Z,26.46
2023-04-18T07:14:29.284Z,27.46
2023-04-18T07:15:29.302Z,26.91
2023-04-18T07:16:29.370Z,27.34
2023-04-18T07:17:29.447Z,27.23
2023-04-18T07:18:37.265Z,27.71
2023-04-18T07:19:30.386Z,27.77
2023-04-18T07:20:29.428Z,27.81
2023-04-18T07:21:29.333Z,28.01
2023-04-18T07:22:29.318Z,24.57
2023-04-18T07:23:30.067Z,0.00
2023-04-18T07:24:29.302Z,0.00
2023-04-18T07:25:29.274Z,0.00
2023-04-18T07:26:32.026Z,0.00
2023-04-18T07:27:30.249Z,0.00
2023-04-18T07:28:29.250Z,0.00
2023-04-18T07:29:29.234Z,0.00
2023-04-18T07:30:29.228Z,0.00
2023-04-18T07:31:29.288Z,0.00
2023-04-18T07:32:29.327Z,0.00
2023-04-18T07:33:29.256Z,0.00
2023-04-18T07:34:29.220Z,2.30
2023-04-18T07:35:29.228Z,20.04
2023-04-18T07:36:29.170Z,28.05
2023-04-18T07:37:29.150Z,31.52
2023-04-18T07:38:29.146Z,38.80
2023-04-18T07:39:29.231Z,43.32
2023-04-18T07:40:29.106Z,49.73
2023-04-18T07:41:29.104Z,57.40
2023-04-18T07:42:29.054Z,64.21
2023-04-18T07:43:29.034Z,70.54
2023-04-18T07:44:29.024Z,75.50
2023-04-18T07:45:28.994Z,80.16
2023-04-18T07:46:29.049Z,87.02
2023-04-18T07:47:30.473Z,93.17
2023-04-18T07:48:28.931Z,98.07
2023-04-18T07:49:28.920Z,104.25
2023-04-18T07:50:28.907Z,112.04
2023-04-18T07:51:28.902Z,118.04
2023-04-18T07:52:28.897Z,124.71
2023-04-18T07:53:28.879Z,129.92
2023-04-18T07:54:28.881Z,132.88
2023-04-18T07:55:28.875Z,138.59
2023-04-18T07:56:28.860Z,143.03
2023-04-18T07:57:28.846Z,149.97
2023-04-18T07:58:28.828Z,155.10
2023-04-18T07:59:28.829Z,159.46
2023-04-18T08:00:28.789Z,163.71
2023-04-18T08:01:28.774Z,169.40
2023-04-18T08:02:28.922Z,173.74
2023-04-18T08:03:28.888Z,178.01
2023-04-18T08:04:30.320Z,182.21
2023-04-18T08:05:28.714Z,185.65
2023-04-18T08:06:28.645Z,190.42
2023-04-18T08:07:28.641Z,196.29
2023-04-18T08:08:28.603Z,198.16
2023-04-18T08:09:28.605Z,201.39
2023-04-18T08:10:28.584Z,204.15
2023-04-18T08:11:29.547Z,210.08
2023-04-18T08:12:28.549Z,212.50
2023-04-18T08:13:28.535Z,214.73
2023-04-18T08:14:28.533Z,218.56
2023-04-18T08:15:28.484Z,219.96
2023-04-18T08:16:28.481Z,212.37
2023-04-18T08:17:28.496Z,200.38
2023-04-18T08:18:28.503Z,159.90
2023-04-18T08:19:28.529Z,124.24
2023-04-18T08:20:28.552Z,98.44
2023-04-18T08:21:28.559Z,71.85
2023-04-18T08:22:28.549Z,77.21
2023-04-18T08:23:28.563Z,72.66
2023-04-18T08:24:28.594Z,57.54
2023-04-18T08:25:28.608Z,45.71
2023-04-18T08:26:29.583Z,37.96
2023-04-18T08:27:28.713Z,35.72
2023-04-18T08:28:28.698Z,42.30
2023-04-18T08:29:28.726Z,46.55
2023-04-18T08:30:28.761Z,57.59
2023-04-18T08:31:28.809Z,62.19
2023-04-18T08:32:28.826Z,70.57
2023-04-18T08:33:28.799Z,74.39
2023-04-18T08:34:28.803Z,77.08
2023-04-18T08:35:28.792Z,78.71
2023-04-18T08:36:28.770Z,74.16
2023-04-18T08:37:28.762Z,74.80
2023-04-18T08:38:28.740Z,79.20
2023-04-18T08:39:28.748Z,82.89
2023-04-18T08:40:28.716Z,85.30
2023-04-18T08:41:28.717Z,87.94
2023-04-18T08:42:28.684Z,85.04
2023-04-18T08:43:28.657Z,82.81
2023-04-18T08:44:28.654Z,87.58
2023-04-18T08:45:28.686Z,86.90
2023-04-18T08:46:28.678Z,90.84
2023-04-18T08:47:28.788Z,90.70
2023-04-18T08:48:28.698Z,91.15
2023-04-18T08:49:28.727Z,90.99
2023-04-18T08:50:28.774Z,92.42
2023-04-18T08:51:28.815Z,96.35
2023-04-18T08:52:28.862Z,97.77
2023-04-18T08:53:28.900Z,100.98
2023-04-18T08:54:28.936Z,102.16
2023-04-18T08:55:28.980Z,104.27
2023-04-18T08:56:29.003Z,108.75
2023-04-18T08:57:29.027Z,109.39
2023-04-18T08:58:29.072Z,111.67
2023-04-18T08:59:29.090Z,113.15
2023-04-18T09:00:29.091Z,116.42
2023-04-18T09:01:29.133Z,118.85
2023-04-18T09:02:29.198Z,120.33
2023-04-18T09:03:29.236Z,124.07
2023-04-18T09:04:29.280Z,125.81
2023-04-18T09:05:29.162Z,129.17
2023-04-18T09:06:30.137Z,129.44
2023-04-18T09:07:29.099Z,130.42
2023-04-18T09:08:29.082Z,133.05
2023-04-18T09:09:29.052Z,137.27
2023-04-18T09:10:29.060Z,143.80
2023-04-18T09:11:29.277Z,149.14
2023-04-18T09:12:28.943Z,153.04
2023-04-18T09:13:28.920Z,155.80
2023-04-18T09:14:28.894Z,159.19
2023-04-18T09:15:29.231Z,157.82
2023-04-18T09:16:28.837Z,159.70
2023-04-18T09:17:28.859Z,160.83
2023-04-18T09:18:28.779Z,162.05
2023-04-18T09:19:28.742Z,162.69
2023-04-18T09:20:28.712Z,165.01
2023-04-18T09:21:28.686Z,166.49
2023-04-18T09:22:28.649Z,170.37
2023-04-18T09:23:28.649Z,172.91
2023-04-18T09:24:28.616Z,173.32
2023-04-18T09:25:28.564Z,174.11
2023-04-18T09:26:28.534Z,176.72
2023-04-18T09:27:28.499Z,178.88
2023-04-18T09:28:28.497Z,182.65
2023-04-18T09:29:28.457Z,184.83
2023-04-18T09:30:28.420Z,188.44
2023-04-18T09:31:28.550Z,188.89
2023-04-18T09:32:28.444Z,189.76
2023-04-18T09:33:28.421Z,188.72
2023-04-18T09:34:28.373Z,184.51
2023-04-18T09:35:28.400Z,179.98
2023-04-18T09:36:28.453Z,177.51
2023-04-18T09:37:29.029Z,175.76
2023-04-18T09:38:28.406Z,176.97
2023-04-18T09:39:28.419Z,170.25
2023-04-18T09:40:28.424Z,166.14
2023-04-18T09:41:28.437Z,163.54
2023-04-18T09:42:29.060Z,161.19
2023-04-18T09:43:28.456Z,160.35
2023-04-18T09:44:28.488Z,159.71
2023-04-18T09:45:28.601Z,159.67
2023-04-18T09:46:28.529Z,159.21
2023-04-18T09:47:28.606Z,158.65
2023-04-18T09:48:28.556Z,157.69
2023-04-18T09:49:28.572Z,155.26
2023-04-18T09:50:28.587Z,151.25
2023-04-18T09:51:28.613Z,149.45
2023-04-18T09:52:28.659Z,146.55
2023-04-18T09:53:28.707Z,144.54
2023-04-18T09:54:28.736Z,141.66
2023-04-18T09:55:28.759Z,139.48
2023-04-18T09:56:28.785Z,136.35
2023-04-18T09:57:28.855Z,133.09
2023-04-18T09:58:28.852Z,127.50
2023-04-18T09:59:28.901Z,124.74
2023-04-18T10:00:29.501Z,121.68
2023-04-18T10:01:29.060Z,118.18
2023-04-18T10:02:29.073Z,117.62
2023-04-18T10:03:29.164Z,113.42
2023-04-18T10:04:29.163Z,110.55
2023-04-18T10:05:29.192Z,108.52
2023-04-18T10:06:29.219Z,104.12
2023-04-18T10:07:29.241Z,100.74
2023-04-18T10:08:29.283Z,96.34
2023-04-18T10:09:29.316Z,93.44
2023-04-18T10:10:29.379Z,90.20
2023-04-18T10:11:29.401Z,58.81
2023-04-18T10:12:29.446Z,60.81
2023-04-18T10:13:29.504Z,68.48
2023-04-18T10:14:29.542Z,70.32
2023-04-18T10:15:29.597Z,70.65
2023-04-18T10:16:29.739Z,70.05
2023-04-18T10:17:29.934Z,69.94
2023-04-18T10:18:29.766Z,69.91
2023-04-18T10:19:29.752Z,68.89
2023-04-18T10:20:29.767Z,71.55
2023-04-18T10:21:29.806Z,72.27
2023-04-18T10:22:29.876Z,74.78
2023-04-18T10:23:29.865Z,73.89
2023-04-18T10:24:29.917Z,75.91
2023-04-18T10:25:29.943Z,77.90
2023-04-18T10:26:29.986Z,78.31
2023-04-18T10:27:29.999Z,79.75
2023-04-18T10:28:30.042Z,81.14
2023-04-18T10:29:30.594Z,82.35
2023-04-18T10:30:30.133Z,84.75
2023-04-18T10:31:30.295Z,84.71
2023-04-18T10:32:30.224Z,86.39
2023-04-18T10:33:32.194Z,87.23
2023-04-18T10:34:30.290Z,90.16
2023-04-18T10:35:30.322Z,91.29
2023-04-18T10:36:31.018Z,92.32
2023-04-18T10:37:30.441Z,93.93
2023-04-18T10:38:30.524Z,94.65
2023-04-18T10:39:30.493Z,95.54
2023-04-18T10:40:30.524Z,97.87
2023-04-18T10:41:30.573Z,97.52
2023-04-18T10:42:30.608Z,98.78
2023-04-18T10:43:30.660Z,100.55
2023-04-18T10:44:30.695Z,98.99
2023-04-18T10:45:30.743Z,103.02
2023-04-18T10:46:32.540Z,102.20
2023-04-18T10:47:30.940Z,103.15
2023-04-18T10:48:30.874Z,103.48
2023-04-18T10:49:32.855Z,105.04
2023-04-18T10:50:30.955Z,106.04
2023-04-18T10:51:31.010Z,106.88
2023-04-18T10:52:31.053Z,107.73
2023-04-18T10:53:31.075Z,106.83
2023-04-18T10:54:31.129Z,110.79
2023-04-18T10:55:31.177Z,109.06
2023-04-18T10:56:31.217Z,110.09
2023-04-18T10:57:31.266Z,111.50
2023-04-18T10:58:31.305Z,111.05
2023-04-18T10:59:31.347Z,111.43
2023-04-18T11:00:31.476Z,111.65
2023-04-18T11:01:32.862Z,113.14
2023-04-18T11:02:31.587Z,113.57
2023-04-18T11:03:31.682Z,114.77
2023-04-18T11:04:31.596Z,113.68
2023-04-18T11:05:31.624Z,115.17
2023-04-18T11:06:31.670Z,113.33
2023-04-18T11:07:31.802Z,115.94
2023-04-18T11:08:31.728Z,116.31
2023-04-18T11:09:31.741Z,116.25
2023-04-18T11:10:31.771Z,118.67
2023-04-18T11:11:31.797Z,118.06
2023-04-18T11:12:31.840Z,117.98
2023-04-18T11:13:31.873Z,116.32
2023-04-18T11:14:31.908Z,117.21
2023-04-18T11:15:31.961Z,119.37
2023-04-18T11:16:32.050Z,118.74
2023-04-18T11:17:32.051Z,119.32
2023-04-18T11:18:32.076Z,120.74
2023-04-18T11:19:32.121Z,120.05
2023-04-18T11:20:32.151Z,122.08
2023-04-18T11:21:32.179Z,123.51
2023-04-18T11:22:32.209Z,123.80
2023-04-18T11:23:32.346Z,124.20
2023-04-18T11:24:32.284Z,125.23
2023-04-18T11:25:32.327Z,123.73
2023-04-18T11:26:32.341Z,126.20
2023-04-18T11:27:32.390Z,125.55
2023-04-18T11:28:33.110Z,126.20
2023-04-18T11:29:32.503Z,125.38
2023-04-18T11:30:32.513Z,126.18
2023-04-18T11:31:32.606Z,125.45
2023-04-18T11:32:32.699Z,128.03
2023-04-18T11:33:32.671Z,127.80
2023-04-18T11:34:32.700Z,129.79
2023-04-18T11:35:32.738Z,127.70
2023-04-18T11:36:32.794Z,129.01
2023-04-18T11:37:32.831Z,129.65
2023-04-18T11:38:32.876Z,129.60
2023-04-18T11:39:33.009Z,130.74
2023-04-18T11:40:32.915Z,131.58
2023-04-18T11:41:32.956Z,130.56
2023-04-18T11:42:32.994Z,131.14
2023-04-18T11:43:33.025Z,131.41
2023-04-18T11:44:34.942Z,130.71
2023-04-18T11:45:33.049Z,132.02
2023-04-18T11:46:33.129Z,131.61
2023-04-18T11:47:33.084Z,130.30
2023-04-18T11:48:32.968Z,132.20
2023-04-18T11:49:32.947Z,131.18
2023-04-18T11:50:32.939Z,133.02
2023-04-18T11:51:32.915Z,133.31
2023-04-18T11:52:32.906Z,133.17
2023-04-18T11:53:32.886Z,131.45
2023-04-18T11:54:32.848Z,132.76
2023-04-18T11:55:33.667Z,132.50
2023-04-18T11:56:34.617Z,133.98
2023-04-18T11:57:32.791Z,134.07
2023-04-18T11:58:32.765Z,134.13
2023-04-18T11:59:32.750Z,134.26
2023-04-18T12:00:32.742Z,134.23
2023-04-18T12:01:32.703Z,134.56
2023-04-18T12:02:32.819Z,134.39
2023-04-18T12:03:32.827Z,134.20
2023-04-18T12:04:32.811Z,132.13
2023-04-18T12:05:32.850Z,134.91
2023-04-18T12:06:32.694Z,134.92
2023-04-18T12:07:32.592Z,133.65
2023-04-18T12:08:33.118Z,133.73
2023-04-18T12:09:32.550Z,134.29
2023-04-18T12:10:32.532Z,132.49
2023-04-18T12:11:32.667Z,133.57
2023-04-18T12:12:32.498Z,130.90
2023-04-18T12:13:32.488Z,132.76
2023-04-18T12:14:32.452Z,130.24
2023-04-18T12:15:32.471Z,130.65
2023-04-18T12:16:32.529Z,131.29
2023-04-18T12:17:32.437Z,131.68
2023-04-18T12:18:32.380Z,131.37
2023-04-18T12:19:33.138Z,131.54
2023-04-18T12:20:32.348Z,132.14
2023-04-18T12:21:32.328Z,131.91
2023-04-18T12:22:32.413Z,131.17
2023-04-18T12:23:32.295Z,131.06
2023-04-18T12:24:32.451Z,131.16
2023-04-18T12:25:32.264Z,130.17
2023-04-18T12:26:32.216Z,132.45
2023-04-18T12:27:32.212Z,132.37
2023-04-18T12:28:32.193Z,131.15
2023-04-18T12:29:32.168Z,129.99
2023-04-18T12:30:32.234Z,130.55
2023-04-18T12:31:32.314Z,131.87
2023-04-18T12:32:32.342Z,131.72
2023-04-18T12:33:32.360Z,131.46
2023-04-18T12:34:32.401Z,131.08
2023-04-18T12:35:32.458Z,130.70
2023-04-18T12:36:32.512Z,131.70
2023-04-18T12:37:32.566Z,130.27
2023-04-18T12:38:32.604Z,131.06
2023-04-18T12:39:32.662Z,132.26
2023-04-18T12:40:32.714Z,130.45
2023-04-18T12:41:32.764Z,130.99
2023-04-18T12:42:32.829Z,129.64
2023-04-18T12:43:32.871Z,131.23
2023-04-18T12:44:32.912Z,130.78
2023-04-18T12:45:32.956Z,130.46